Time;durP1;ratioP1;P1;durP2;ratioP2;P2;SDS_P1;SDS_P2;PMS_P1;PMS_P2;Temp;Humidity;BMP_temperature;BMP_pressure;BME280_temperature;BME280_humidity;BME280_pressure;Samples;Min_cycle;Max_cycle;Signal;HPM_P1;HPM_P2
2021/10/27 00:02:13;;;;;;;0.75;0.50;;;;;;;25.49;34.98;97524.56;5072738;28;20077;-35
2021/10/27 00:04:39;;;;;;;0.40;0.40;;;;;;;25.49;35.01;97518.44;5072704;28;20024;-32
2021/10/27 00:07:04;;;;;;;0.47;0.40;;;;;;;25.45;35.05;97512.47;5073123;28;20029;-30
2021/10/27 00:09:29;;;;;;;0.43;0.43;;;;;;;25.48;35.14;97522.00;5081524;28;20027;-31
2021/10/27 00:11:55;;;;;;;0.73;0.50;;;;;;;25.48;35.12;97515.00;5072507;28;20039;-37
2021/10/27 00:14:20;;;;;;;0.77;0.47;;;;;;;25.48;34.94;97515.00;5072881;28;20025;-35
2021/10/27 00:16:46;;;;;;;0.40;0.40;;;;;;;25.47;35.07;97520.28;5076364;28;20025;-32
2021/10/27 00:19:11;;;;;;;0.40;0.40;;;;;;;25.47;34.76;97521.13;5071704;28;20032;-30
2021/10/27 00:21:37;;;;;;;0.30;0.30;;;;;;;25.47;35.11;97513.25;5072985;28;20032;-32
2021/10/27 00:24:02;;;;;;;0.60;0.50;;;;;;;25.47;34.87;97510.63;5072943;28;20036;-34
2021/10/27 00:26:27;;;;;;;0.43;0.43;;;;;;;25.47;35.09;97512.44;5072242;28;20024;-31
2021/10/27 00:28:53;;;;;;;0.50;0.50;;;;;;;25.44;35.24;97510.78;5072145;28;20731;-32
2021/10/27 00:31:19;;;;;;;0.82;0.50;;;;;;;25.46;35.09;97516.81;5069309;28;20035;-32
2021/10/27 00:33:44;;;;;;;0.30;0.30;;;;;;;25.46;35.04;97514.19;5069956;28;20078;-33
2021/10/27 00:36:10;;;;;;;0.40;0.40;;;;;;;25.45;35.00;97509.84;5072685;28;20032;-30
2021/10/27 00:38:35;;;;;;;0.40;0.40;;;;;;;25.46;35.11;97514.19;5071471;28;20959;-32
2021/10/27 00:41:01;;;;;;;0.40;0.40;;;;;;;25.45;34.95;97509.84;5071463;28;20680;-31
2021/10/27 00:43:26;;;;;;;0.50;0.45;;;;;;;25.44;35.12;97501.13;5070703;28;20024;-33
2021/10/27 00:45:52;;;;;;;0.70;0.60;;;;;;;25.45;35.13;97502.00;5071068;28;20043;-32
2021/10/27 00:48:17;;;;;;;0.60;0.50;;;;;;;25.44;34.92;97495.03;5068900;28;20024;-31
2021/10/27 00:50:43;;;;;;;0.75;0.40;;;;;;;25.44;35.10;97505.53;5065948;28;20039;-30
2021/10/27 00:53:08;;;;;;;0.50;0.50;;;;;;;25.43;35.14;97502.03;5071031;28;21380;-33
2021/10/27 00:55:33;;;;;;;1.05;0.60;;;;;;;25.45;34.99;97507.22;5069109;28;20036;-31
2021/10/27 00:57:59;;;;;;;0.70;0.40;;;;;;;25.43;35.05;97507.28;5069687;28;20036;-28
2021/10/27 01:00:24;;;;;;;0.65;0.60;;;;;;;25.44;34.85;97502.91;5078634;28;20567;-32
2021/10/27 01:02:50;;;;;;;0.50;0.50;;;;;;;25.43;35.14;97503.81;5069218;28;20031;-34
2021/10/27 01:05:16;;;;;;;0.40;0.40;;;;;;;25.43;35.10;97502.03;5072294;28;20542;-32
2021/10/27 01:07:41;;;;;;;0.38;0.38;;;;;;;25.42;34.97;97508.22;5085481;28;20031;-31
2021/10/27 01:10:07;;;;;;;0.50;0.50;;;;;;;25.43;35.02;97506.44;5068982;28;20036;-31
2021/10/27 01:12:33;;;;;;;0.30;0.30;;;;;;;25.43;35.11;97503.81;5077404;28;20097;-32
2021/10/27 01:14:58;;;;;;;0.90;0.43;;;;;;;25.42;35.11;97496.84;5067248;28;20032;-32
2021/10/27 01:17:23;;;;;;;0.50;0.50;;;;;;;25.42;35.09;97502.97;5069487;28;20025;-34
2021/10/27 01:19:53;;;;;;;0.50;0.50;;;;;;;25.43;34.85;97503.81;5068575;28;20032;-31
2021/10/27 01:22:22;;;;;;;0.40;0.40;;;;;;;25.42;35.05;97504.72;5071264;28;20103;-31
2021/10/27 01:24:47;;;;;;;0.45;0.45;;;;;;;25.42;34.94;97505.59;5073367;28;20024;-30
2021/10/27 01:27:13;;;;;;;0.40;0.40;;;;;;;25.41;35.05;97505.66;5069754;28;20582;-34
2021/10/27 01:29:38;;;;;;;1.63;0.40;;;;;;;25.40;34.87;97501.31;5068477;28;20725;-31
2021/10/27 01:32:04;;;;;;;0.57;0.50;;;;;;;25.41;35.00;97505.66;5068037;28;20032;-27
2021/10/27 01:34:30;;;;;;;0.40;0.30;;;;;;;25.41;34.98;97500.41;5070035;28;20036;-30
2021/10/27 01:36:55;;;;;;;0.40;0.40;;;;;;;25.40;35.03;97509.19;5066898;28;20040;-34
2021/10/27 01:39:20;;;;;;;0.30;0.30;;;;;;;25.40;34.98;97510.03;5070324;28;20024;-31
2021/10/27 01:41:46;;;;;;;0.40;0.40;;;;;;;25.40;34.95;97514.44;5067920;28;20055;-28
2021/10/27 01:44:11;;;;;;;0.43;0.43;;;;;;;25.40;34.98;97511.81;5069044;28;20467;-31
2021/10/27 01:46:37;;;;;;;0.57;0.40;;;;;;;25.40;35.14;97511.81;5069823;28;20031;-32
2021/10/27 01:49:05;;;;;;;0.40;0.40;;;;;;;25.40;35.07;97509.19;5083192;28;20031;-29
2021/10/27 01:51:31;;;;;;;0.50;0.50;;;;;;;25.39;35.07;97510.09;5073699;28;20387;-31
2021/10/27 01:53:56;;;;;;;0.60;0.40;;;;;;;25.39;34.99;97507.47;5068428;28;20024;-33
2021/10/27 01:56:23;;;;;;;0.55;0.55;;;;;;;25.40;34.91;97506.56;5068407;28;20067;-30
2021/10/27 01:58:49;;;;;;;0.50;0.50;;;;;;;25.36;35.12;97507.59;5072593;28;20697;-30
2021/10/27 02:01:14;;;;;;;0.43;0.40;;;;;;;25.38;35.07;97511.00;5068631;28;20028;-31
2021/10/27 02:03:39;;;;;;;0.40;0.40;;;;;;;25.37;35.05;97515.41;5069338;28;20509;-30
2021/10/27 02:06:05;;;;;;;0.43;0.40;;;;;;;25.36;34.86;97507.59;5070176;28;20032;-32
2021/10/27 02:08:30;;;;;;;0.40;0.40;;;;;;;25.37;34.94;97509.31;5069751;28;20027;-31
2021/10/27 02:10:56;;;;;;;0.43;0.43;;;;;;;25.38;34.88;97500.50;5070483;28;20082;-32
2021/10/27 02:13:22;;;;;;;0.40;0.40;;;;;;;25.37;34.91;97498.81;5069776;28;20025;-30
2021/10/27 02:15:47;;;;;;;0.40;0.40;;;;;;;25.37;34.96;97499.69;5068274;28;20032;-28
2021/10/27 02:18:12;;;;;;;0.85;0.50;;;;;;;25.37;35.06;97494.44;5069471;28;20024;-35
2021/10/27 02:20:38;;;;;;;0.30;0.30;;;;;;;25.36;34.90;97494.50;5069203;28;20394;-31
2021/10/27 02:23:03;;;;;;;0.50;0.50;;;;;;;25.36;34.89;97491.88;5069575;28;20562;-31
2021/10/27 02:25:29;;;;;;;0.50;0.50;;;;;;;25.36;34.88;97502.34;5060471;28;20086;-33
2021/10/27 02:27:54;;;;;;;0.40;0.40;;;;;;;25.37;34.94;97498.81;5070248;28;20028;-30
2021/10/27 02:30:19;;;;;;;0.73;0.47;;;;;;;25.35;35.03;97496.25;5071210;28;20012;-34
2021/10/27 02:32:45;;;;;;;0.68;0.50;;;;;;;25.35;35.10;97501.50;5077359;28;20047;-32
2021/10/27 02:35:10;;;;;;;0.52;0.40;;;;;;;25.34;35.08;97505.03;5069651;28;20016;-31
2021/10/27 02:37:36;;;;;;;0.60;0.60;;;;;;;25.35;35.04;97500.66;5068088;28;20029;-30
2021/10/27 02:40:01;;;;;;;0.82;0.40;;;;;;;25.34;34.81;97501.56;5067548;28;20651;-29
2021/10/27 02:42:27;;;;;;;0.30;0.30;;;;;;;25.34;34.88;97505.03;5068503;28;20093;-32
2021/10/27 02:44:52;;;;;;;0.50;0.40;;;;;;;25.34;34.89;97501.56;5067463;28;20040;-33
2021/10/27 02:47:17;;;;;;;0.63;0.63;;;;;;;25.34;34.95;97506.78;5067902;28;20016;-30
2021/10/27 02:49:43;;;;;;;0.43;0.43;;;;;;;25.34;34.77;97504.16;5067492;28;20494;-32
2021/10/27 02:52:08;;;;;;;0.32;0.30;;;;;;;25.33;34.81;97500.72;5067925;28;20527;-30
2021/10/27 02:54:34;;;;;;;0.40;0.40;;;;;;;25.31;34.71;97503.41;5067940;28;20035;-32
2021/10/27 02:57:00;;;;;;;0.35;0.35;;;;;;;25.31;34.86;97511.25;5049373;28;20704;-32
2021/10/27 02:59:25;;;;;;;0.30;0.30;;;;;;;25.31;34.98;97506.03;5067949;28;20031;-30
2021/10/27 03:01:50;;;;;;;0.40;0.40;;;;;;;25.31;34.79;97513.88;5069737;28;20028;-32
2021/10/27 03:04:16;;;;;;;0.50;0.50;;;;;;;25.30;34.83;97509.56;5066760;28;20405;-33
2021/10/27 03:06:41;;;;;;;0.43;0.40;;;;;;;25.30;34.91;97506.06;5070127;28;20032;-33
2021/10/27 03:09:07;;;;;;;0.60;0.60;;;;;;;25.30;34.91;97509.56;5067463;28;20032;-27
2021/10/27 03:11:32;;;;;;;0.43;0.43;;;;;;;25.30;34.84;97508.69;5066810;28;20039;-33
2021/10/27 03:13:58;;;;;;;0.50;0.45;;;;;;;25.29;34.78;97504.38;5068127;28;20105;-34
2021/10/27 03:16:23;;;;;;;0.38;0.38;;;;;;;25.28;34.84;97511.38;5068274;28;20028;-35
2021/10/27 03:18:48;;;;;;;0.68;0.50;;;;;;;25.28;34.77;97511.38;5082111;28;20426;-32
2021/10/27 03:21:14;;;;;;;0.40;0.40;;;;;;;25.28;34.78;97510.53;5067161;28;20050;-34
2021/10/27 03:23:39;;;;;;;0.40;0.40;;;;;;;25.28;34.78;97508.75;5068862;28;20036;-30
2021/10/27 03:26:05;;;;;;;0.45;0.40;;;;;;;25.28;34.78;97502.66;5065834;28;20445;-29
2021/10/27 03:28:30;;;;;;;0.60;0.50;;;;;;;25.27;34.82;97512.31;5064297;28;20020;-33
2021/10/27 03:30:56;;;;;;;0.40;0.40;;;;;;;25.27;34.83;97512.31;5069175;28;20423;-30
2021/10/27 03:33:22;;;;;;;0.30;0.30;;;;;;;25.27;34.83;97514.94;5070595;28;20031;-31
2021/10/27 03:35:47;;;;;;;0.32;0.32;;;;;;;25.26;34.76;97513.22;5067200;28;20051;-31
2021/10/27 03:38:13;;;;;;;0.68;0.57;;;;;;;25.27;34.81;97512.31;5069184;28;20043;-30
2021/10/27 03:40:39;;;;;;;0.30;0.30;;;;;;;25.26;34.91;97517.59;5066505;28;20438;-31
2021/10/27 03:43:04;;;;;;;0.35;0.35;;;;;;;25.21;34.87;97499.44;5068263;28;20029;-28
2021/10/27 03:45:29;;;;;;;0.50;0.50;;;;;;;25.27;34.70;97516.69;5075849;28;20035;-32
2021/10/27 03:47:55;;;;;;;0.50;0.50;;;;;;;25.25;34.72;97511.50;5066166;28;20113;-31
2021/10/27 03:50:20;;;;;;;0.50;0.50;;;;;;;25.26;34.83;97518.47;5068336;28;20934;-27
2021/10/27 03:52:46;;;;;;;0.35;0.32;;;;;;;25.27;34.79;97514.94;5067421;28;20591;-32
2021/10/27 03:55:11;;;;;;;0.38;0.38;;;;;;;25.26;34.85;97517.59;5067717;28;20436;-34
2021/10/27 03:57:37;;;;;;;0.40;0.40;;;;;;;25.27;34.78;97516.69;5082928;28;20469;-31
2021/10/27 04:00:05;;;;;;;0.68;0.55;;;;;;;25.25;34.78;97516.72;5069119;28;20028;-30
2021/10/27 04:02:30;;;;;;;0.47;0.43;;;;;;;25.25;34.72;97516.72;5053685;28;20025;-28
2021/10/27 04:04:56;;;;;;;0.50;0.47;;;;;;;25.25;34.93;97515.91;5068246;28;20097;-34
2021/10/27 04:07:21;;;;;;;0.50;0.50;;;;;;;25.24;34.71;97514.19;5067849;28;20022;-31
2021/10/27 04:09:47;;;;;;;0.93;0.47;;;;;;;25.23;34.93;97518.59;5067379;28;20029;-32
2021/10/27 04:12:12;;;;;;;0.40;0.40;;;;;;;25.24;34.80;97522.91;5084694;28;20530;-29
2021/10/27 04:14:37;;;;;;;0.30;0.30;;;;;;;25.23;34.90;97518.59;5068157;28;20031;-36
2021/10/27 04:17:03;;;;;;;0.40;0.30;;;;;;;25.24;34.75;97525.53;5085865;28;20073;-32
2021/10/27 04:19:29;;;;;;;0.30;0.30;;;;;;;25.24;34.75;97528.16;5066097;28;20042;-30
2021/10/27 04:21:54;;;;;;;0.43;0.43;;;;;;;25.24;34.90;97524.69;5062633;28;20020;-28
2021/10/27 04:24:19;;;;;;;0.30;0.30;;;;;;;25.24;34.81;97530.78;5067692;28;20053;-30
2021/10/27 04:26:45;;;;;;;0.40;0.40;;;;;;;25.23;34.76;97529.06;5085863;28;20028;-30
2021/10/27 04:29:10;;;;;;;0.38;0.38;;;;;;;25.23;34.96;97529.06;5071676;28;20131;-31
2021/10/27 04:31:37;;;;;;;0.70;0.40;;;;;;;25.22;34.88;97527.38;5072580;28;20024;-33
2021/10/27 04:34:02;;;;;;;0.52;0.40;;;;;;;25.22;34.82;97527.38;5069890;28;20028;-32
2021/10/27 04:36:28;;;;;;;1.50;0.40;;;;;;;25.22;35.21;97532.63;5073266;28;20020;-37
2021/10/27 04:38:54;;;;;;;0.60;0.40;;;;;;;25.22;34.86;97527.38;5070270;28;20035;-35
2021/10/27 04:41:19;;;;;;;0.30;0.30;;;;;;;25.22;34.72;97527.38;5071801;28;20032;-34
2021/10/27 04:43:45;;;;;;;0.35;0.35;;;;;;;25.22;34.89;97516.00;5072354;28;20089;-33
2021/10/27 04:46:10;;;;;;;0.40;0.40;;;;;;;25.21;34.68;97523.03;5069856;28;20021;-34
2021/10/27 04:48:36;;;;;;;0.40;0.30;;;;;;;25.21;34.95;97523.03;5071777;28;20051;-31
2021/10/27 04:51:01;;;;;;;0.38;0.30;;;;;;;25.21;34.79;97536.16;5069544;28;20104;-32
2021/10/27 04:53:26;;;;;;;0.20;0.20;;;;;;;25.20;34.73;97539.69;5070540;28;20028;-32
2021/10/27 04:55:52;;;;;;;0.52;0.50;;;;;;;25.20;34.65;97531.81;5069431;28;20033;-32
2021/10/27 04:58:17;;;;;;;0.52;0.30;;;;;;;25.20;34.78;97529.19;5070523;28;20347;-33
2021/10/27 05:00:43;;;;;;;0.43;0.43;;;;;;;25.21;34.79;97535.28;5079304;28;20486;-28
2021/10/27 05:03:08;;;;;;;0.43;0.40;;;;;;;25.19;34.75;97535.34;5071488;28;20544;-32
2021/10/27 05:05:40;;;;;;;0.40;0.40;;;;;;;25.19;34.85;97535.34;5085617;28;20085;-30
2021/10/27 05:08:05;;;;;;;0.57;0.40;;;;;;;25.20;34.91;97539.69;5070724;28;20418;-30
2021/10/27 05:10:31;;;;;;;0.65;0.50;;;;;;;25.18;34.83;97533.66;5069816;28;20028;-35
2021/10/27 05:12:56;;;;;;;0.30;0.30;;;;;;;25.18;34.73;97536.28;5070218;28;20039;-30
2021/10/27 05:15:21;;;;;;;0.43;0.40;;;;;;;25.19;34.82;97527.47;5087356;28;20027;-32
2021/10/27 05:17:47;;;;;;;0.40;0.40;;;;;;;25.17;34.69;97535.41;5070957;28;20028;-33
2021/10/27 05:20:14;;;;;;;0.40;0.40;;;;;;;25.17;34.75;97529.31;5070024;28;20086;-31
2021/10/27 05:22:39;;;;;;;0.70;0.32;;;;;;;25.17;34.77;97524.91;5069853;28;20020;-34
2021/10/27 05:25:05;;;;;;;0.30;0.30;;;;;;;25.17;34.86;97524.91;5069345;28;20262;-28
2021/10/27 05:27:31;;;;;;;0.40;0.40;;;;;;;25.18;34.75;97520.53;5068082;28;20016;-32
2021/10/27 05:29:57;;;;;;;0.40;0.40;;;;;;;25.17;34.75;97524.06;5069907;28;20039;-30
2021/10/27 05:32:22;;;;;;;0.50;0.50;;;;;;;25.17;34.71;97519.66;5069995;28;20035;-33
2021/10/27 05:34:47;;;;;;;0.63;0.32;;;;;;;25.17;34.88;97524.06;5068920;28;20043;-33
2021/10/27 05:37:13;;;;;;;0.40;0.40;;;;;;;25.16;34.71;97517.09;5068115;28;20255;-31
2021/10/27 05:39:38;;;;;;;0.30;0.30;;;;;;;25.15;34.77;97525.88;5067510;28;20028;-30
2021/10/27 05:42:05;;;;;;;0.50;0.50;;;;;;;25.15;34.81;97525.88;5071613;28;20032;-33
2021/10/27 05:44:31;;;;;;;0.30;0.30;;;;;;;25.15;34.89;97525.88;5079404;28;20459;-31
2021/10/27 05:46:57;;;;;;;0.43;0.43;;;;;;;25.14;34.75;97529.44;5066917;28;20028;-34
2021/10/27 05:49:26;;;;;;;0.30;0.30;;;;;;;25.14;34.68;97532.88;5067877;28;20035;-31
2021/10/27 05:51:57;;;;;;;0.30;0.30;;;;;;;25.14;34.71;97530.28;5070129;28;20052;-29
2021/10/27 05:57:07;;;;;;;0.30;0.30;;;;;;;25.14;34.84;97529.44;5068945;28;20097;-32
2021/10/27 05:59:32;;;;;;;0.30;0.30;;;;;;;25.14;34.85;97535.50;5070707;28;20020;-33
2021/10/27 06:01:58;;;;;;;0.40;0.40;;;;;;;25.13;34.67;97532.97;5070672;28;20058;-32
2021/10/27 06:04:24;;;;;;;0.40;0.38;;;;;;;25.14;34.89;97539.94;5071328;28;20521;-31
2021/10/27 06:06:49;;;;;;;0.32;0.32;;;;;;;25.13;34.74;97535.59;5071977;28;20216;-32
2021/10/27 06:09:16;;;;;;;0.52;0.52;;;;;;;25.13;34.57;97535.59;5071304;28;20040;-35
2021/10/27 06:11:42;;;;;;;0.30;0.30;;;;;;;25.12;34.82;97533.88;5067225;28;20028;-32
2021/10/27 06:14:08;;;;;;;0.30;0.30;;;;;;;25.11;34.68;97540.91;5069680;28;20028;-35
2021/10/27 06:16:33;;;;;;;0.40;0.40;;;;;;;25.11;34.50;97534.78;5067949;28;20517;-32
2021/10/27 06:18:59;;;;;;;0.40;0.40;;;;;;;25.10;34.58;97543.56;5084197;28;20568;-32
2021/10/27 06:21:24;;;;;;;0.40;0.40;;;;;;;25.10;34.82;97543.56;5070239;28;20396;-34
2021/10/27 06:23:49;;;;;;;0.60;0.40;;;;;;;25.08;34.68;97548.88;5070071;28;20044;-32
2021/10/27 06:26:18;;;;;;;0.40;0.40;;;;;;;25.09;34.87;97553.19;5068051;28;20103;-33
2021/10/27 06:29:04;;;;;;;0.40;0.30;;;;;;;25.09;34.85;97557.59;5069835;28;20114;-31
2021/10/27 06:36:55;;;;;;;0.40;0.40;;;;;;;25.09;34.72;97557.59;5068566;28;20034;-33
2021/10/27 06:47:39;;;;;;;0.70;0.60;;;;;;;25.09;34.70;97568.09;5066901;28;20046;-32
2021/10/27 06:50:05;;;;;;;0.73;0.40;;;;;;;25.07;34.79;97567.28;5066494;28;20028;-30
2021/10/27 06:52:31;;;;;;;0.57;0.52;;;;;;;25.08;34.76;97569.00;5067286;28;20107;-36
2021/10/27 06:54:56;;;;;;;0.50;0.50;;;;;;;25.07;34.63;97567.28;5067505;28;20023;-32
2021/10/27 06:57:26;;;;;;;0.60;0.50;;;;;;;25.06;34.63;97569.06;5065677;28;20028;-34
2021/10/27 06:59:55;;;;;;;0.43;0.38;;;;;;;25.07;34.63;97569.91;5068176;28;20063;-32
2021/10/27 07:06:07;;;;;;;0.40;0.40;;;;;;;25.05;34.66;97568.22;5068350;28;20151;-33
2021/10/27 07:14:58;;;;;;;0.40;0.40;;;;;;;25.02;34.77;97568.31;5054073;28;20032;-33
2021/10/27 07:16:06;;;;;;;0.22;0.22;;;;;;;25.05;34.74;97583.94;5065998;28;20039;-30
2021/10/27 07:18:32;;;;;;;0.57;0.50;;;;;;;25.05;34.72;97577.81;5066591;28;20024;-31
2021/10/27 07:20:57;;;;;;;0.63;0.43;;;;;;;25.05;34.71;97589.19;5067338;28;20081;-35
2021/10/27 07:23:23;;;;;;;0.73;0.60;;;;;;;25.03;34.75;97583.16;5068313;28;20024;-37
2021/10/27 07:25:56;;;;;;;0.40;0.40;;;;;;;25.05;34.77;97583.94;5068341;28;20043;-34
2021/10/27 07:28:22;;;;;;;0.43;0.43;;;;;;;25.04;34.94;97592.72;5068632;28;20016;-32
2021/10/27 07:30:48;;;;;;;0.50;0.50;;;;;;;25.04;35.00;97577.00;5066454;28;20027;-35
2021/10/27 07:33:14;;;;;;;0.45;0.35;;;;;;;25.05;34.80;97583.94;5067209;28;20042;-31
2021/10/27 07:35:52;;;;;;;0.55;0.40;;;;;;;25.04;34.90;97574.38;5067789;28;20753;-35
2021/10/27 07:41:02;;;;;;;0.40;0.40;;;;;;;25.07;34.95;97590.88;5066937;28;20037;-32
2021/10/27 07:43:30;;;;;;;0.50;0.45;;;;;;;25.07;34.88;97590.88;5064649;28;20037;-36
2021/10/27 07:45:55;;;;;;;0.60;0.60;;;;;;;25.07;34.98;97586.50;5065900;28;20035;-35
2021/10/27 07:48:21;;;;;;;0.47;0.47;;;;;;;25.08;35.01;97592.59;5065527;28;20024;-33
2021/10/27 07:50:47;;;;;;;0.57;0.50;;;;;;;25.08;35.07;97590.84;5066924;28;20107;-32
2021/10/27 07:53:13;;;;;;;0.43;0.43;;;;;;;25.09;34.98;97589.91;5069777;28;20024;-33
2021/10/27 07:55:41;;;;;;;0.55;0.50;;;;;;;25.09;34.99;97587.28;5064973;28;20014;-34
2021/10/27 07:58:07;;;;;;;0.50;0.50;;;;;;;25.10;35.15;97585.53;5069139;28;20569;-32
2021/10/27 08:00:32;;;;;;;1.35;0.60;;;;;;;25.11;35.08;97584.63;5071906;28;20024;-35
2021/10/27 08:03:01;;;;;;;0.65;0.60;;;;;;;25.12;35.06;97588.94;5067923;28;20113;-37
2021/10/27 08:05:27;;;;;;;1.55;0.50;;;;;;;25.12;34.94;97591.56;5080878;28;20016;-32
2021/10/27 08:07:53;;;;;;;0.40;0.40;;;;;;;25.14;34.94;97600.25;5087149;28;20424;-33
2021/10/27 08:10:19;;;;;;;0.95;0.50;;;;;;;25.14;35.12;97595.00;5074245;28;20482;-34
2021/10/27 08:12:45;;;;;;;0.75;0.60;;;;;;;25.16;35.05;97603.66;5070503;28;20024;-33
2021/10/27 08:15:10;;;;;;;0.30;0.30;;;;;;;25.17;35.00;97602.75;5080817;28;20020;-34
2021/10/27 08:17:36;;;;;;;0.52;0.43;;;;;;;25.18;34.93;97599.22;5071708;28;20101;-31
2021/10/27 08:20:04;;;;;;;0.40;0.40;;;;;;;25.18;34.96;97602.69;5070589;28;20062;-37
2021/10/27 08:22:30;;;;;;;0.40;0.40;;;;;;;25.17;34.99;97595.72;5073417;28;20073;-31
2021/10/27 08:24:55;;;;;;;0.43;0.43;;;;;;;25.21;34.98;97599.13;5073442;28;20028;-36
2021/10/27 08:27:22;;;;;;;0.50;0.32;;;;;;;25.22;34.98;97600.81;5073576;28;20541;-36
2021/10/27 08:29:48;;;;;;;0.50;0.30;;;;;;;25.23;35.00;97605.16;5073319;28;20466;-31
2021/10/27 08:34:48;;;;;;;0.50;0.50;;;;;;;25.24;35.11;97598.97;5078318;28;20168;-33
2021/10/27 08:37:15;;;;;;;0.47;0.40;;;;;;;25.25;35.11;97595.44;5069923;28;20522;-31
2021/10/27 08:39:42;;;;;;;0.20;0.20;;;;;;;25.26;35.09;97593.69;5072476;28;20064;-35
2021/10/27 08:42:08;;;;;;;0.50;0.50;;;;;;;25.26;35.30;97597.16;5079884;28;20043;-30
2021/10/27 08:44:33;;;;;;;1.35;0.60;;;;;;;25.28;35.06;97605.81;5071865;28;20024;-32
2021/10/27 08:47:00;;;;;;;0.50;0.45;;;;;;;25.28;35.09;97595.31;5088122;28;20460;-33
2021/10/27 08:49:25;;;;;;;0.32;0.32;;;;;;;25.28;35.40;97595.31;5068764;28;20029;-35
2021/10/27 08:51:51;;;;;;;0.50;0.50;;;;;;;25.29;35.26;97591.78;5070104;28;20044;-33
2021/10/27 08:54:17;;;;;;;0.30;0.30;;;;;;;25.29;35.38;97591.78;5086064;28;20049;-31
2021/10/27 08:56:44;;;;;;;0.40;0.40;;;;;;;25.30;35.21;97593.50;5071265;28;20024;-33
2021/10/27 08:59:21;;;;;;;0.40;0.40;;;;;;;25.30;35.36;97596.13;5072499;28;20108;-31
2021/10/27 09:02:12;;;;;;;0.30;0.30;;;;;;;25.33;35.43;97594.28;5057509;28;20024;-33
2021/10/27 09:04:59;;;;;;;0.65;0.40;;;;;;;25.34;35.27;97594.25;5062987;28;20040;-31
2021/10/27 10:05:12;;;;;;;0.65;0.32;;;;;;;25.43;35.57;97540.53;5068653;28;20186;-34
2021/10/27 10:07:38;;;;;;;0.30;0.30;;;;;;;25.43;35.60;97533.53;5056385;28;20035;-33
2021/10/27 10:10:05;;;;;;;1.23;0.50;;;;;;;25.43;35.59;97543.16;5067664;28;20059;-33
2021/10/27 10:15:06;;;;;;;0.35;0.35;;;;;;;25.44;35.72;97531.78;3374534;22;20068;-66
2021/10/27 10:17:33;;;;;;;0.40;0.40;;;;;;;25.43;35.83;97524.78;4982976;23;20098;-66
2021/10/27 10:19:59;;;;;;;0.32;0.30;;;;;;;25.44;35.68;97521.28;5012846;28;20418;-66
2021/10/27 10:22:28;;;;;;;0.73;0.38;;;;;;;25.44;35.79;97529.97;5020229;28;20047;-66
2021/10/27 10:24:54;;;;;;;0.20;0.20;;;;;;;25.45;35.76;97525.59;5031436;28;20028;-66
2021/10/27 10:27:37;;;;;;;0.57;0.40;;;;;;;25.45;35.70;97522.97;5031107;28;20025;-63
2021/10/27 10:30:05;;;;;;;0.45;0.40;;;;;;;25.46;35.75;97529.94;5034152;28;20688;-64
2021/10/27 10:32:33;;;;;;;0.20;0.20;;;;;;;25.45;35.90;97523.81;5031365;28;20439;-63
2021/10/27 10:35:16;;;;;;;0.30;0.30;;;;;;;25.42;35.78;97518.72;5033410;28;20416;-63
2021/10/27 10:40:50;;;;;;;0.55;0.50;;;;;;;25.47;35.75;97520.28;5020818;28;20098;-63
2021/10/27 10:43:39;;;;;;;0.40;0.40;;;;;;;25.48;35.96;97512.38;5030945;28;20029;-63
2021/10/27 10:55:41;;;;;;;0.45;0.30;;;;;;;25.47;35.83;97509.81;5031209;28;20264;-63
2021/10/27 11:24:39;;;;;;;0.47;0.32;;;;;;;25.50;35.87;97468.53;5031372;28;20614;-64
2021/10/27 11:41:27;;;;;;;0.63;0.50;;;;;;;25.53;35.84;97451.81;5030731;28;20060;-64
2021/10/27 11:44:13;;;;;;;0.75;0.50;;;;;;;25.53;35.90;97446.56;5019749;28;20036;-63
2021/10/27 11:46:55;;;;;;;0.30;0.30;;;;;;;25.53;36.03;97438.69;5035389;28;20017;-63
2021/10/27 11:49:25;;;;;;;0.30;0.30;;;;;;;25.53;35.88;97436.06;5031769;28;20021;-63
2021/10/27 11:51:54;;;;;;;0.30;0.22;;;;;;;25.53;35.86;97430.81;5033702;28;20048;-63
2021/10/27 11:54:21;;;;;;;0.30;0.30;;;;;;;25.52;35.96;97429.94;5033103;28;20083;-63
2021/10/27 11:56:46;;;;;;;0.30;0.30;;;;;;;25.54;35.94;97428.13;5035030;28;20450;-63
2021/10/27 11:59:12;;;;;;;0.30;0.30;;;;;;;25.54;35.92;97417.63;5033560;28;20037;-63
2021/10/27 12:01:41;;;;;;;0.30;0.30;;;;;;;25.54;35.95;97412.38;5034773;28;20028;-63
2021/10/27 12:04:13;;;;;;;0.30;0.30;;;;;;;25.55;35.96;97419.31;5033197;28;20084;-63
2021/10/27 12:07:00;;;;;;;1.20;0.43;;;;;;;25.57;35.87;97421.94;5034340;28;20405;-63
2021/10/27 12:10:40;;;;;;;0.32;0.32;;;;;;;25.57;35.94;97412.28;5034895;28;20267;-63
2021/10/27 12:17:58;;;;;;;0.45;0.40;;;;;;;25.57;35.81;97407.03;5031115;28;20032;-63
2021/10/27 12:20:52;;;;;;;0.60;0.47;;;;;;;25.57;36.05;97404.41;5034037;28;20167;-63
2021/10/27 12:23:22;;;;;;;0.25;0.25;;;;;;;25.57;35.74;97401.78;5014850;28;20540;-64
2021/10/27 12:25:48;;;;;;;0.45;0.38;;;;;;;25.57;35.91;97396.53;5033767;28;20473;-62
2021/10/27 12:28:24;;;;;;;0.85;0.30;;;;;;;25.57;35.76;97386.06;5035201;28;20031;-63
2021/10/27 12:30:49;;;;;;;0.70;0.40;;;;;;;25.59;35.83;97377.25;5032738;28;20021;-62
2021/10/27 12:33:15;;;;;;;0.55;0.40;;;;;;;25.59;35.79;97372.84;5018392;28;20994;-62
2021/10/27 12:35:41;;;;;;;0.40;0.40;;;;;;;25.59;35.78;97364.97;5033852;28;20031;-62
2021/10/27 12:38:22;;;;;;;0.22;0.22;;;;;;;25.60;35.81;97373.69;5032750;28;20032;-64
2021/10/27 12:40:49;;;;;;;1.08;0.45;;;;;;;25.60;35.83;97368.44;5022300;28;20140;-64
2021/10/27 12:43:19;;;;;;;0.25;0.22;;;;;;;25.60;35.78;97364.06;5031516;28;20029;-63
2021/10/27 12:45:51;;;;;;;0.20;0.20;;;;;;;25.60;35.94;97369.31;5034272;28;20048;-62
2021/10/27 12:48:38;;;;;;;0.17;0.17;;;;;;;25.61;35.97;97357.88;5030959;28;20020;-64
2021/10/27 12:51:11;;;;;;;0.32;0.32;;;;;;;25.61;36.03;97365.75;5019738;28;20488;-64
2021/10/27 12:53:47;;;;;;;0.20;0.20;;;;;;;25.60;35.92;97353.56;5002307;28;20033;-63
2021/10/27 12:56:17;;;;;;;0.40;0.25;;;;;;;25.61;36.13;97354.41;5019635;28;20025;-63
2021/10/27 12:58:50;;;;;;;0.30;0.30;;;;;;;25.61;36.16;97351.78;5030969;28;20460;-64
2021/10/27 13:01:34;;;;;;;0.20;0.20;;;;;;;25.62;36.03;97351.72;5015883;28;20055;-63
2021/10/27 13:06:54;;;;;;;0.20;0.20;;;;;;;25.62;36.19;97343.84;5034446;28;20095;-63
2021/10/27 13:12:28;;;;;;;0.20;0.20;;;;;;;25.62;36.22;97340.38;5015696;28;20534;-62
2021/10/27 13:14:45;;;;;;;0.40;0.30;;;;;;;25.63;36.17;97342.09;5025393;28;20037;-63
2021/10/27 13:30:47;;;;;;;0.20;0.20;;;;;;;25.64;36.28;97338.53;5032609;28;20424;-64
2021/10/27 13:33:13;;;;;;;0.20;0.20;;;;;;;25.64;36.29;97335.91;5031351;28;20022;-62
2021/10/27 13:35:38;;;;;;;0.30;0.30;;;;;;;25.65;36.23;97334.97;5031898;28;20025;-63
2021/10/27 13:38:04;;;;;;;0.30;0.30;;;;;;;25.65;36.09;97329.72;5031801;28;20025;-64
2021/10/27 13:40:30;;;;;;;0.30;0.30;;;;;;;25.65;36.16;97329.72;5032883;28;20032;-63
2021/10/27 14:06:49;;;;;;;0.30;0.30;;;;;;;25.68;36.28;97329.59;5018116;28;20175;-63
2021/10/27 14:11:56;;;;;;;0.20;0.20;;;;;;;25.69;36.38;97320.78;5033870;28;20032;-63
2021/10/27 14:14:34;;;;;;;0.20;0.20;;;;;;;25.69;36.34;97318.19;5017047;28;20030;-66
2021/10/27 14:22:41;;;;;;;0.30;0.20;;;;;;;25.70;36.19;97309.38;5015657;28;20039;-62
2021/10/27 15:19:56;;;;;;;0.38;0.30;;;;;;;25.74;36.39;97268.94;5015117;28;20028;-62
2021/10/27 15:30:28;;;;;;;0.30;0.20;;;;;;;25.75;36.49;97262.78;5028231;28;20044;-63
2021/10/27 15:51:55;;;;;;;0.47;0.47;;;;;;;25.76;36.52;97240.88;5031130;28;20041;-63
2021/10/27 15:54:20;;;;;;;0.45;0.45;;;;;;;25.76;36.42;97243.50;5029671;28;20032;-63
2021/10/27 15:56:47;;;;;;;1.55;0.50;;;;;;;25.76;36.35;97243.50;5030297;28;20605;-64
2021/10/27 15:59:12;;;;;;;0.60;0.38;;;;;;;25.78;36.38;97252.13;5013880;28;20033;-62
2021/10/27 16:01:37;;;;;;;0.40;0.40;;;;;;;25.77;36.29;97239.94;5028568;28;20041;-62
2021/10/27 16:04:04;;;;;;;0.60;0.43;;;;;;;25.77;36.31;97245.19;5030940;28;20028;-62
2021/10/27 16:06:32;;;;;;;0.70;0.40;;;;;;;25.78;36.35;97246.88;5009607;28;20029;-63
2021/10/27 16:08:59;;;;;;;0.20;0.20;;;;;;;25.77;36.23;97242.56;5013898;28;20084;-62
2021/10/27 16:11:24;;;;;;;0.30;0.30;;;;;;;25.78;36.28;97246.03;5031625;28;20026;-63
2021/10/27 16:13:50;;;;;;;0.68;0.30;;;;;;;25.78;36.24;97239.00;5028671;28;20021;-64
2021/10/27 16:16:17;;;;;;;0.75;0.40;;;;;;;25.78;36.39;97240.78;5029048;28;20028;-62
2021/10/27 16:18:42;;;;;;;0.82;0.30;;;;;;;25.80;36.36;97244.19;5013500;28;20648;-62